sensor_id;sensor_type;location;lat;lon;timestamp;temperature;humidity
16253;DHT22;8234;41.480;2.306;2023-02-15T00:07:41;7.00;99.90
16253;DHT22;8234;41.480;2.306;2023-02-15T00:17:46;7.00;99.90
16253;DHT22;8234;41.480;2.306;2023-02-15T00:27:49;6.90;99.90
16253;DHT22;8234;41.480;2.306;2023-02-15T00:37:55;7.00;99.90
16253;DHT22;8234;41.480;2.306;2023-02-15T00:47:59;7.00;99.90
16253;DHT22;8234;41.480;2.306;2023-02-15T00:58:05;6.80;99.90
16253;DHT22;8234;41.480;2.306;2023-02-15T01:08:09;6.90;99.90
16253;DHT22;8234;41.480;2.306;2023-02-15T01:18:15;6.50;99.90
16253;DHT22;8234;41.480;2.306;2023-02-15T01:28:19;6.30;99.90
16253;DHT22;8234;41.480;2.306;2023-02-15T01:38:25;6.40;99.90
16253;DHT22;8234;41.480;2.306;2023-02-15T01:48:28;6.40;99.90
16253;DHT22;8234;41.480;2.306;2023-02-15T01:58:35;6.30;99.90
16253;DHT22;8234;41.480;2.306;2023-02-15T02:08:41;6.30;99.90
16253;DHT22;8234;41.480;2.306;2023-02-15T02:18:54;6.50;99.90
16253;DHT22;8234;41.480;2.306;2023-02-15T02:40:02;6.30;99.90
16253;DHT22;8234;41.480;2.306;2023-02-15T02:50:10;6.20;99.90
16253;DHT22;8234;41.480;2.306;2023-02-15T03:00:17;6.60;99.90
16253;DHT22;8234;41.480;2.306;2023-02-15T03:10:23;6.50;99.90
16253;DHT22;8234;41.480;2.306;2023-02-15T03:20:31;6.40;99.90
16253;DHT22;8234;41.480;2.306;2023-02-15T03:30:38;6.20;99.90
16253;DHT22;8234;41.480;2.306;2023-02-15T03:40:46;6.50;99.90
16253;DHT22;8234;41.480;2.306;2023-02-15T03:51:10;6.20;99.90
16253;DHT22;8234;41.480;2.306;2023-02-15T04:01:36;6.20;99.90
16253;DHT22;8234;41.480;2.306;2023-02-15T04:12:00;6.10;99.90
16253;DHT22;8234;41.480;2.306;2023-02-15T04:22:05;6.20;99.90
16253;DHT22;8234;41.480;2.306;2023-02-15T04:32:27;6.30;99.90
16253;DHT22;8234;41.480;2.306;2023-02-15T04:42:33;6.30;99.90
16253;DHT22;8234;41.480;2.306;2023-02-15T04:52:36;6.10;99.90
16253;DHT22;8234;41.480;2.306;2023-02-15T05:02:42;6.10;99.90
16253;DHT22;8234;41.480;2.306;2023-02-15T05:12:46;6.10;99.90
16253;DHT22;8234;41.480;2.306;2023-02-15T05:22:53;6.20;99.90
16253;DHT22;8234;41.480;2.306;2023-02-15T05:32:57;6.10;99.90
16253;DHT22;8234;41.480;2.306;2023-02-15T05:43:03;6.40;99.90
16253;DHT22;8234;41.480;2.306;2023-02-15T05:53:06;6.10;99.90
16253;DHT22;8234;41.480;2.306;2023-02-15T06:03:12;6.00;99.90
16253;DHT22;8234;41.480;2.306;2023-02-15T06:13:16;6.10;99.90
16253;DHT22;8234;41.480;2.306;2023-02-15T06:23:21;6.40;99.90
16253;DHT22;8234;41.480;2.306;2023-02-15T06:33:25;6.10;99.90
16253;DHT22;8234;41.480;2.306;2023-02-15T06:43:30;6.00;99.90
16253;DHT22;8234;41.480;2.306;2023-02-15T06:53:34;5.90;99.90
16253;DHT22;8234;41.480;2.306;2023-02-15T07:03:40;5.90;99.90
16253;DHT22;8234;41.480;2.306;2023-02-15T07:13:44;6.10;99.90
16253;DHT22;8234;41.480;2.306;2023-02-15T07:23:49;6.20;99.90
16253;DHT22;8234;41.480;2.306;2023-02-15T07:33:53;6.50;99.90
16253;DHT22;8234;41.480;2.306;2023-02-15T07:43:59;6.80;99.90
16253;DHT22;8234;41.480;2.306;2023-02-15T07:54:03;7.20;99.90
16253;DHT22;8234;41.480;2.306;2023-02-15T08:04:08;7.60;99.90
16253;DHT22;8234;41.480;2.306;2023-02-15T08:14:15;8.10;99.90
16253;DHT22;8234;41.480;2.306;2023-02-15T08:24:22;8.60;99.90
16253;DHT22;8234;41.480;2.306;2023-02-15T08:34:26;9.20;99.90
16253;DHT22;8234;41.480;2.306;2023-02-15T08:44:32;10.40;99.90
16253;DHT22;8234;41.480;2.306;2023-02-15T08:54:36;11.20;99.90
16253;DHT22;8234;41.480;2.306;2023-02-15T09:04:41;11.80;99.90
16253;DHT22;8234;41.480;2.306;2023-02-15T09:14:45;12.00;99.90
16253;DHT22;8234;41.480;2.306;2023-02-15T09:24:50;11.90;99.90
16253;DHT22;8234;41.480;2.306;2023-02-15T09:34:54;11.90;99.90
16253;DHT22;8234;41.480;2.306;2023-02-15T09:45:16;12.20;99.90
16253;DHT22;8234;41.480;2.306;2023-02-15T09:55:42;12.20;99.90
16253;DHT22;8234;41.480;2.306;2023-02-15T10:06:02;12.50;99.90
16253;DHT22;8234;41.480;2.306;2023-02-15T10:16:18;12.50;99.90
16253;DHT22;8234;41.480;2.306;2023-02-15T10:26:33;12.50;99.90
16253;DHT22;8234;41.480;2.306;2023-02-15T10:36:53;12.90;99.90
16253;DHT22;8234;41.480;2.306;2023-02-15T10:47:29;13.00;99.90
16253;DHT22;8234;41.480;2.306;2023-02-15T10:57:43;13.10;99.90
16253;DHT22;8234;41.480;2.306;2023-02-15T11:07:54;14.00;99.90
16253;DHT22;8234;41.480;2.306;2023-02-15T11:18:05;15.20;99.90
16253;DHT22;8234;41.480;2.306;2023-02-15T11:28:19;15.00;99.90
16253;DHT22;8234;41.480;2.306;2023-02-15T11:38:28;15.90;99.90
16253;DHT22;8234;41.480;2.306;2023-02-15T11:48:34;17.00;99.90
16253;DHT22;8234;41.480;2.306;2023-02-15T11:58:42;18.20;99.90
16253;DHT22;8234;41.480;2.306;2023-02-15T12:09:01;17.70;99.90
16253;DHT22;8234;41.480;2.306;2023-02-15T12:19:13;18.20;99.90
16253;DHT22;8234;41.480;2.306;2023-02-15T12:29:28;18.20;99.90
16253;DHT22;8234;41.480;2.306;2023-02-15T12:39:33;18.40;99.90
16253;DHT22;8234;41.480;2.306;2023-02-15T12:49:38;18.40;99.90
16253;DHT22;8234;41.480;2.306;2023-02-15T12:59:50;18.50;99.90
16253;DHT22;8234;41.480;2.306;2023-02-15T13:09:56;19.70;99.90
16253;DHT22;8234;41.480;2.306;2023-02-15T13:20:05;20.00;99.90
16253;DHT22;8234;41.480;2.306;2023-02-15T13:30:22;20.50;99.90
16253;DHT22;8234;41.480;2.306;2023-02-15T13:40:33;19.90;99.90
16253;DHT22;8234;41.480;2.306;2023-02-15T13:50:55;20.40;99.90
16253;DHT22;8234;41.480;2.306;2023-02-15T14:01:09;20.50;99.90
16253;DHT22;8234;41.480;2.306;2023-02-15T14:11:21;20.00;99.90
16253;DHT22;8234;41.480;2.306;2023-02-15T14:21:31;19.80;99.90
16253;DHT22;8234;41.480;2.306;2023-02-15T14:31:39;20.90;99.90
16253;DHT22;8234;41.480;2.306;2023-02-15T14:41:48;22.10;99.90
16253;DHT22;8234;41.480;2.306;2023-02-15T14:52:03;21.90;99.90
16253;DHT22;8234;41.480;2.306;2023-02-15T15:02:13;21.50;99.90
16253;DHT22;8234;41.480;2.306;2023-02-15T15:12:40;20.90;99.90
16253;DHT22;8234;41.480;2.306;2023-02-15T15:22:46;21.50;99.90
16253;DHT22;8234;41.480;2.306;2023-02-15T15:32:57;21.00;99.90
16253;DHT22;8234;41.480;2.306;2023-02-15T15:53:44;17.80;99.90
16253;DHT22;8234;41.480;2.306;2023-02-15T16:03:51;17.30;99.90
16253;DHT22;8234;41.480;2.306;2023-02-15T16:13:57;16.90;99.90
16253;DHT22;8234;41.480;2.306;2023-02-15T16:24:25;16.80;99.90
16253;DHT22;8234;41.480;2.306;2023-02-15T16:34:31;15.80;99.90
16253;DHT22;8234;41.480;2.306;2023-02-15T16:44:36;14.90;99.90
16253;DHT22;8234;41.480;2.306;2023-02-15T16:54:42;14.60;99.90
16253;DHT22;8234;41.480;2.306;2023-02-15T17:05:02;14.00;99.90
16253;DHT22;8234;41.480;2.306;2023-02-15T17:15:24;13.80;99.90
16253;DHT22;8234;41.480;2.306;2023-02-15T17:25:35;13.30;99.90
16253;DHT22;8234;41.480;2.306;2023-02-15T17:35:41;13.00;99.90
16253;DHT22;8234;41.480;2.306;2023-02-15T17:45:48;12.80;99.90
16253;DHT22;8234;41.480;2.306;2023-02-15T17:55:54;12.20;99.90
16253;DHT22;8234;41.480;2.306;2023-02-15T18:05:58;11.90;99.90
16253;DHT22;8234;41.480;2.306;2023-02-15T18:16:23;11.20;99.90
16253;DHT22;8234;41.480;2.306;2023-02-15T18:26:28;11.10;99.90
16253;DHT22;8234;41.480;2.306;2023-02-15T18:36:42;11.10;99.90
16253;DHT22;8234;41.480;2.306;2023-02-15T18:46:46;10.80;99.90
16253;DHT22;8234;41.480;2.306;2023-02-15T18:56:55;10.70;99.90
16253;DHT22;8234;41.480;2.306;2023-02-15T19:07:00;10.60;99.90
16253;DHT22;8234;41.480;2.306;2023-02-15T19:17:14;10.30;99.90
16253;DHT22;8234;41.480;2.306;2023-02-15T19:27:21;10.30;99.90
16253;DHT22;8234;41.480;2.306;2023-02-15T19:37:32;10.00;99.90
16253;DHT22;8234;41.480;2.306;2023-02-15T19:47:37;9.90;99.90
16253;DHT22;8234;41.480;2.306;2023-02-15T19:57:42;9.90;99.90
16253;DHT22;8234;41.480;2.306;2023-02-15T20:07:49;9.80;99.90
16253;DHT22;8234;41.480;2.306;2023-02-15T20:17:56;9.70;99.90
16253;DHT22;8234;41.480;2.306;2023-02-15T20:28:00;9.40;99.90
16253;DHT22;8234;41.480;2.306;2023-02-15T20:38:06;9.50;99.90
16253;DHT22;8234;41.480;2.306;2023-02-15T20:48:14;9.50;99.90
16253;DHT22;8234;41.480;2.306;2023-02-15T20:58:23;9.50;99.90
16253;DHT22;8234;41.480;2.306;2023-02-15T21:08:29;9.50;99.90
16253;DHT22;8234;41.480;2.306;2023-02-15T21:18:36;9.60;99.90
16253;DHT22;8234;41.480;2.306;2023-02-15T21:28:42;9.60;99.90
16253;DHT22;8234;41.480;2.306;2023-02-15T21:38:48;9.60;99.90
16253;DHT22;8234;41.480;2.306;2023-02-15T21:48:56;9.40;99.90
16253;DHT22;8234;41.480;2.306;2023-02-15T21:59:08;9.50;99.90
16253;DHT22;8234;41.480;2.306;2023-02-15T22:09:14;9.30;99.90
16253;DHT22;8234;41.480;2.306;2023-02-15T22:19:20;9.20;99.90
16253;DHT22;8234;41.480;2.306;2023-02-15T22:29:24;9.20;99.90
16253;DHT22;8234;41.480;2.306;2023-02-15T22:39:29;9.20;99.90
16253;DHT22;8234;41.480;2.306;2023-02-15T22:49:34;8.90;99.90
16253;DHT22;8234;41.480;2.306;2023-02-15T22:59:39;9.00;99.90
16253;DHT22;8234;41.480;2.306;2023-02-15T23:09:43;9.00;99.90
16253;DHT22;8234;41.480;2.306;2023-02-15T23:19:49;8.80;99.90
16253;DHT22;8234;41.480;2.306;2023-02-15T23:29:53;8.60;99.90
16253;DHT22;8234;41.480;2.306;2023-02-15T23:39:58;8.50;99.90
16253;DHT22;8234;41.480;2.306;2023-02-15T23:50:20;8.70;99.90
